createdAt,value
2023-04-26T00:00:25.340Z,85.50
2023-04-26T00:02:55.676Z,84.90
2023-04-26T00:05:27.213Z,85.60
2023-04-26T00:08:00.992Z,85.60
2023-04-26T00:10:35.712Z,85.70
2023-04-26T00:13:05.735Z,85.70
2023-04-26T00:15:33.680Z,85.20
2023-04-26T00:18:01.733Z,85.10
2023-04-26T00:20:32.462Z,85.40
2023-04-26T00:23:09.159Z,85.40
2023-04-26T00:25:40.655Z,85.50
2023-04-26T00:28:08.549Z,85.60
2023-04-26T00:30:42.103Z,85.80
2023-04-26T00:33:12.704Z,85.70
2023-04-26T00:35:40.630Z,85.60
2023-04-26T00:38:10.851Z,85.70
2023-04-26T00:40:40.088Z,85.10
2023-04-26T00:43:10.804Z,85.90
2023-04-26T00:45:38.862Z,85.20
2023-04-26T00:48:07.179Z,85.90
2023-04-26T00:50:35.454Z,86.10
2023-04-26T00:53:04.617Z,85.50
2023-04-26T00:55:40.108Z,85.00
2023-04-26T00:58:14.096Z,85.80
2023-04-26T01:00:51.999Z,86.00
2023-04-26T01:03:23.032Z,86.00
2023-04-26T01:05:51.261Z,85.90
2023-04-26T01:08:22.823Z,85.90
2023-04-26T01:10:55.351Z,85.70
2023-04-26T01:13:23.429Z,85.60
2023-04-26T01:15:53.400Z,85.80
2023-04-26T01:18:23.939Z,85.90
2023-04-26T01:20:56.834Z,86.00
2023-04-26T01:23:26.064Z,86.00
2023-04-26T01:25:56.243Z,86.20
2023-04-26T01:28:26.870Z,86.10
2023-04-26T01:31:00.838Z,85.90
2023-04-26T01:33:28.713Z,86.20
2023-04-26T01:35:56.564Z,86.40
2023-04-26T01:38:33.349Z,86.50
2023-04-26T01:41:03.630Z,86.40
2023-04-26T01:43:45.412Z,86.40
2023-04-26T01:46:13.310Z,86.20
2023-04-26T01:48:41.187Z,86.10
2023-04-26T01:51:12.032Z,86.10
2023-04-26T01:53:41.255Z,86.50
2023-04-26T01:56:15.057Z,86.60
2023-04-26T01:58:45.674Z,86.90
2023-04-26T02:01:17.099Z,87.00
2023-04-26T02:03:49.127Z,86.60
2023-04-26T02:06:17.059Z,86.50
2023-04-26T02:08:46.608Z,85.70
2023-04-26T02:11:14.554Z,83.20
2023-04-26T02:13:42.364Z,85.10
2023-04-26T02:16:13.128Z,87.10
2023-04-26T02:18:41.519Z,87.50
2023-04-26T02:21:12.313Z,87.30
2023-04-26T02:23:40.561Z,87.30
2023-04-26T02:26:24.661Z,87.90
2023-04-26T02:29:00.150Z,87.20
2023-04-26T02:31:29.110Z,86.60
2023-04-26T02:33:58.560Z,87.20
2023-04-26T02:36:36.311Z,87.50
2023-04-26T02:39:16.822Z,87.30
2023-04-26T02:41:49.102Z,87.30
2023-04-26T02:44:16.974Z,87.40
2023-04-26T02:46:47.574Z,85.00
2023-04-26T02:49:15.496Z,87.30
2023-04-26T02:51:43.358Z,87.70
2023-04-26T02:54:11.238Z,87.50
2023-04-26T02:56:42.107Z,87.50
2023-04-26T02:59:11.313Z,87.50
2023-04-26T03:01:39.595Z,87.50
2023-04-26T03:04:10.005Z,87.60
2023-04-26T03:06:41.104Z,87.50
2023-04-26T03:09:08.994Z,87.10
2023-04-26T03:11:39.264Z,86.90
2023-04-26T03:14:17.851Z,86.90
2023-04-26T03:16:53.411Z,86.90
2023-04-26T03:19:24.650Z,84.70
2023-04-26T03:21:52.591Z,85.50
2023-04-26T03:24:28.111Z,87.10
2023-04-26T03:26:59.798Z,87.10
2023-04-26T03:29:29.040Z,87.50
2023-04-26T03:31:56.913Z,87.50
2023-04-26T03:34:24.841Z,87.50
2023-04-26T03:36:59.886Z,87.80
2023-04-26T03:39:32.767Z,87.70
2023-04-26T03:42:01.114Z,87.60
2023-04-26T03:44:31.182Z,88.00
2023-04-26T03:47:02.668Z,87.70
2023-04-26T03:49:30.529Z,87.70
2023-04-26T03:52:03.232Z,88.00
2023-04-26T03:54:31.955Z,87.90
2023-04-26T03:56:59.808Z,87.20
2023-04-26T03:59:27.726Z,87.80
2023-04-26T04:01:56.981Z,88.00
2023-04-26T04:04:25.082Z,87.60
2023-04-26T04:06:53.284Z,87.90
2023-04-26T04:09:21.159Z,87.50
2023-04-26T04:11:52.428Z,85.70
2023-04-26T04:14:20.293Z,83.40
2023-04-26T04:16:54.287Z,86.70
2023-04-26T04:19:23.511Z,87.70
2023-04-26T04:21:53.533Z,87.50
2023-04-26T04:24:23.683Z,87.30
2023-04-26T04:26:51.545Z,87.30
2023-04-26T04:29:22.666Z,87.40
2023-04-26T04:31:50.696Z,87.70
2023-04-26T04:34:19.006Z,87.90
2023-04-26T04:37:04.155Z,88.10
2023-04-26T04:39:34.836Z,88.10
2023-04-26T04:42:05.870Z,88.20
2023-04-26T04:44:33.734Z,88.00
2023-04-26T04:47:04.695Z,87.70
2023-04-26T04:49:41.844Z,87.00
2023-04-26T04:52:13.988Z,87.50
2023-04-26T04:54:42.026Z,87.90
2023-04-26T04:57:16.975Z,87.20
2023-04-26T04:59:44.810Z,86.40
2023-04-26T05:02:18.770Z,87.80
2023-04-26T05:04:49.291Z,88.10
2023-04-26T05:07:18.633Z,80.70
2023-04-26T05:09:49.323Z,82.30
2023-04-26T05:12:19.942Z,81.40
2023-04-26T05:14:53.813Z,86.90
2023-04-26T05:17:34.971Z,88.30
2023-04-26T05:20:08.162Z,83.10
2023-04-26T05:22:40.203Z,87.20
2023-04-26T05:25:10.516Z,88.10
2023-04-26T05:27:38.471Z,88.10
2023-04-26T05:30:08.015Z,83.20
2023-04-26T05:32:38.922Z,84.40
2023-04-26T05:35:10.008Z,85.60
2023-04-26T05:37:39.872Z,82.80
2023-04-26T05:40:10.074Z,79.80
2023-04-26T05:42:38.450Z,79.90
2023-04-26T05:45:07.247Z,87.50
2023-04-26T05:47:37.668Z,87.50
2023-04-26T05:50:06.806Z,87.00
2023-04-26T05:52:41.782Z,87.10
2023-04-26T05:55:10.530Z,85.90
2023-04-26T05:57:38.601Z,86.70
2023-04-26T06:00:09.561Z,86.40
2023-04-26T06:02:37.520Z,86.30
2023-04-26T06:05:08.706Z,84.20
2023-04-26T06:07:36.773Z,85.80
2023-04-26T06:10:07.235Z,85.90
2023-04-26T06:12:35.094Z,85.70
2023-04-26T06:15:03.604Z,83.50
2023-04-26T06:17:32.065Z,79.70
2023-04-26T06:19:59.972Z,84.10
2023-04-26T06:22:27.812Z,85.10
2023-04-26T06:24:55.694Z,84.30
2023-04-26T06:27:41.521Z,85.10
2023-04-26T06:30:10.629Z,84.10
2023-04-26T06:32:42.961Z,85.30
2023-04-26T06:35:11.052Z,83.70
2023-04-26T06:37:39.551Z,84.30
2023-04-26T06:40:16.006Z,85.10
2023-04-26T06:42:45.339Z,84.90
2023-04-26T06:45:14.061Z,80.60
2023-04-26T06:47:45.121Z,83.90
2023-04-26T06:50:15.838Z,82.70
2023-04-26T06:52:43.736Z,77.20
2023-04-26T06:55:14.435Z,80.00
2023-04-26T06:57:50.554Z,84.20
2023-04-26T07:00:36.816Z,84.40
2023-04-26T07:03:07.147Z,84.80
2023-04-26T07:05:43.191Z,84.50
2023-04-26T07:08:17.357Z,85.00
2023-04-26T07:10:45.226Z,84.30
2023-04-26T07:13:22.143Z,82.70
2023-04-26T07:15:50.084Z,80.30
2023-04-26T07:18:23.762Z,79.80
2023-04-26T07:21:01.857Z,76.40
2023-04-26T07:23:38.377Z,73.60
2023-04-26T07:26:13.797Z,81.70
2023-04-26T07:28:43.082Z,83.90
2023-04-26T07:31:11.110Z,84.00
2023-04-26T07:33:39.188Z,83.00
2023-04-26T07:36:13.304Z,68.20
2023-04-26T07:38:41.222Z,71.20
2023-04-26T07:41:12.931Z,67.90
2023-04-26T07:43:42.181Z,69.10
2023-04-26T07:46:10.089Z,72.00
2023-04-26T07:48:38.090Z,73.90
2023-04-26T07:51:10.087Z,73.60
2023-04-26T07:53:41.285Z,71.30
2023-04-26T07:56:10.247Z,72.70
2023-04-26T07:58:39.238Z,68.50
2023-04-26T08:01:09.677Z,71.70
2023-04-26T08:03:37.905Z,73.40
2023-04-26T08:06:12.123Z,67.80
2023-04-26T08:08:53.662Z,69.50
2023-04-26T08:11:27.777Z,71.10
2023-04-26T08:13:55.736Z,70.90
2023-04-26T08:16:34.201Z,69.30
2023-04-26T08:19:03.351Z,70.90
2023-04-26T08:21:31.727Z,68.30
2023-04-26T08:23:59.579Z,70.40
2023-04-26T08:26:27.443Z,75.10
2023-04-26T08:28:55.584Z,76.80
2023-04-26T08:31:23.736Z,72.40
2023-04-26T08:33:53.257Z,73.50
2023-04-26T08:36:21.527Z,70.40
2023-04-26T08:38:49.393Z,76.50
2023-04-26T08:41:24.804Z,79.50
2023-04-26T08:43:53.395Z,70.40
2023-04-26T08:46:27.846Z,72.00
2023-04-26T08:49:06.767Z,77.10
2023-04-26T08:51:36.322Z,80.20
2023-04-26T08:54:06.342Z,77.90
2023-04-26T08:56:37.166Z,71.10
2023-04-26T08:59:11.806Z,75.40
2023-04-26T09:01:41.448Z,76.20
2023-04-26T09:04:11.779Z,77.70
2023-04-26T09:06:40.079Z,73.30
2023-04-26T09:09:10.380Z,76.50
2023-04-26T09:11:55.590Z,75.70
2023-04-26T09:14:23.510Z,67.00
2023-04-26T09:16:55.084Z,70.10
2023-04-26T09:19:37.424Z,76.10
2023-04-26T09:22:06.256Z,73.60
2023-04-26T09:24:49.027Z,72.80
2023-04-26T09:27:17.519Z,70.90
2023-04-26T09:30:09.522Z,68.80
2023-04-26T09:33:03.560Z,66.50
2023-04-26T09:35:34.270Z,79.00
2023-04-26T09:38:09.731Z,79.60
2023-04-26T09:40:41.530Z,78.60
2023-04-26T09:43:11.558Z,77.50
2023-04-26T09:45:49.326Z,73.70
2023-04-26T09:48:22.746Z,78.00
2023-04-26T09:50:54.203Z,78.30
2023-04-26T09:53:37.146Z,74.40
2023-04-26T09:56:09.413Z,76.10
2023-04-26T09:58:38.818Z,76.30
2023-04-26T10:01:11.598Z,78.40
2023-04-26T10:03:40.220Z,78.30
2023-04-26T10:06:10.101Z,79.40
2023-04-26T10:08:41.053Z,78.00
2023-04-26T10:11:10.496Z,67.20
2023-04-26T10:13:38.690Z,72.50
2023-04-26T10:16:07.305Z,69.40
2023-04-26T10:18:35.614Z,70.00
2023-04-26T10:21:14.757Z,75.20
2023-04-26T10:23:46.278Z,78.50
2023-04-26T10:26:49.553Z,76.00
2023-04-26T10:29:17.540Z,79.60
2023-04-26T10:32:12.073Z,70.80
2023-04-26T10:34:40.397Z,66.50
2023-04-26T10:37:13.836Z,67.00
2023-04-26T10:39:45.851Z,70.30
2023-04-26T10:42:29.476Z,73.90
2023-04-26T10:45:00.905Z,74.40
2023-04-26T10:47:34.802Z,74.00
2023-04-26T10:50:06.180Z,74.10
2023-04-26T10:52:36.131Z,77.70
2023-04-26T10:55:06.194Z,79.50
2023-04-26T10:57:51.875Z,69.80
2023-04-26T11:00:30.911Z,75.60
2023-04-26T11:03:09.518Z,79.30
2023-04-26T11:05:54.436Z,79.70
2023-04-26T11:08:26.783Z,77.20
2023-04-26T11:11:11.727Z,67.10
2023-04-26T11:13:42.451Z,63.40
2023-04-26T11:16:11.461Z,78.40
2023-04-26T11:18:40.657Z,80.20
2023-04-26T11:21:09.039Z,79.00
2023-04-26T11:23:38.298Z,71.60
2023-04-26T11:26:10.065Z,64.80
2023-04-26T11:28:41.096Z,63.90
2023-04-26T11:31:09.459Z,65.90
2023-04-26T11:33:43.649Z,66.00
2023-04-26T11:36:14.683Z,73.60
2023-04-26T11:38:46.566Z,79.00
2023-04-26T11:41:20.076Z,76.20
2023-04-26T11:43:47.948Z,80.10
2023-04-26T11:46:18.805Z,74.60
2023-04-26T11:48:46.967Z,79.30
2023-04-26T11:51:15.034Z,65.00
2023-04-26T11:53:46.787Z,73.00
2023-04-26T11:56:27.054Z,77.30
2023-04-26T11:58:55.465Z,79.00
2023-04-26T12:01:30.235Z,62.60
2023-04-26T12:04:04.964Z,68.80
2023-04-26T12:06:42.616Z,71.30
2023-04-26T12:09:14.910Z,67.30
2023-04-26T12:11:48.674Z,64.10
2023-04-26T12:14:17.385Z,59.00
2023-04-26T12:16:45.299Z,63.30
2023-04-26T12:19:17.170Z,65.00
2023-04-26T12:21:45.634Z,65.90
2023-04-26T12:24:34.422Z,62.80
2023-04-26T12:27:21.912Z,59.80
2023-04-26T12:29:52.806Z,60.30
2023-04-26T12:32:28.967Z,60.70
2023-04-26T12:34:59.927Z,61.30
2023-04-26T12:37:27.789Z,61.20
2023-04-26T12:39:57.040Z,61.00
2023-04-26T12:42:25.026Z,61.00
2023-04-26T12:44:55.051Z,60.00
2023-04-26T12:47:22.961Z,60.50
2023-04-26T12:49:53.608Z,58.00
2023-04-26T12:52:24.268Z,60.00
2023-04-26T12:54:52.130Z,61.70
2023-04-26T12:57:27.518Z,62.30
2023-04-26T13:00:01.524Z,61.50
2023-04-26T13:02:32.726Z,62.10
2023-04-26T13:05:04.401Z,58.20
2023-04-26T13:07:33.092Z,57.50
2023-04-26T13:10:01.317Z,57.20
2023-04-26T13:12:31.443Z,58.50
2023-04-26T13:15:02.206Z,58.20
2023-04-26T13:17:33.224Z,57.80
2023-04-26T13:20:05.942Z,59.70
2023-04-26T13:22:33.882Z,58.90
2023-04-26T13:25:20.009Z,60.30
2023-04-26T13:27:49.222Z,58.60
2023-04-26T13:30:17.133Z,60.80
2023-04-26T13:32:45.557Z,59.30
2023-04-26T13:35:16.592Z,62.50
2023-04-26T13:37:46.702Z,60.00
2023-04-26T13:40:14.760Z,60.00
2023-04-26T13:42:42.883Z,58.50
2023-04-26T13:45:17.538Z,62.60
2023-04-26T13:47:49.865Z,59.10
2023-04-26T13:50:17.890Z,60.20
2023-04-26T13:52:50.834Z,60.10
2023-04-26T13:55:22.264Z,67.70
2023-04-26T13:57:52.906Z,61.40
2023-04-26T14:00:31.253Z,60.50
2023-04-26T14:02:59.919Z,60.50
2023-04-26T14:05:46.140Z,62.60
2023-04-26T14:08:14.086Z,58.60
2023-04-26T14:10:42.139Z,63.90
2023-04-26T14:13:10.066Z,61.50
2023-04-26T14:15:39.293Z,58.90
2023-04-26T14:18:07.256Z,56.80
2023-04-26T14:20:44.292Z,63.60
2023-04-26T14:23:12.658Z,59.00
2023-04-26T14:25:41.079Z,58.90
2023-04-26T14:28:09.216Z,57.90
2023-04-26T14:30:37.099Z,59.50
2023-04-26T14:33:06.687Z,57.00
2023-04-26T14:35:34.659Z,59.50
2023-04-26T14:38:06.480Z,58.40
2023-04-26T14:40:37.880Z,67.40
2023-04-26T14:43:07.877Z,60.00
2023-04-26T14:45:44.383Z,62.50
2023-04-26T14:48:13.991Z,59.20
2023-04-26T14:50:44.676Z,60.70
2023-04-26T14:53:12.519Z,70.30
2023-04-26T14:55:43.455Z,62.80
2023-04-26T14:58:11.408Z,58.90
2023-04-26T15:00:39.544Z,61.80
2023-04-26T15:03:07.531Z,59.30
2023-04-26T15:05:36.888Z,55.70
2023-04-26T15:08:08.015Z,63.60
2023-04-26T15:10:36.105Z,59.70
2023-04-26T15:13:04.213Z,59.90
2023-04-26T15:15:32.105Z,55.10
2023-04-26T15:18:00.795Z,58.60
2023-04-26T15:20:33.796Z,57.70
2023-04-26T15:23:06.113Z,70.50
2023-04-26T15:25:53.392Z,68.20
2023-04-26T15:28:21.332Z,69.50
2023-04-26T15:30:52.183Z,60.70
2023-04-26T15:33:23.101Z,59.80
2023-04-26T15:35:54.658Z,57.70
2023-04-26T15:38:26.658Z,61.50
2023-04-26T15:40:54.844Z,58.20
2023-04-26T15:43:22.970Z,62.70
2023-04-26T15:45:50.893Z,63.50
2023-04-26T15:48:33.117Z,57.80
2023-04-26T15:51:06.187Z,57.70
2023-04-26T15:53:36.437Z,54.30
2023-04-26T15:56:15.368Z,57.40
2023-04-26T15:58:44.967Z,56.80
2023-04-26T16:01:13.047Z,60.20
2023-04-26T16:03:41.796Z,64.80
2023-04-26T16:06:12.832Z,61.10
2023-04-26T16:08:47.763Z,69.90
2023-04-26T16:11:15.685Z,67.60
2023-04-26T16:13:46.030Z,59.80
2023-04-26T16:16:14.001Z,61.10
2023-04-26T16:18:44.746Z,71.60
2023-04-26T16:21:13.167Z,68.80
2023-04-26T16:23:45.395Z,59.30
2023-04-26T16:26:23.325Z,57.90
2023-04-26T16:28:51.221Z,58.00
2023-04-26T16:31:28.325Z,59.90
2023-04-26T16:33:56.310Z,64.10
2023-04-26T16:36:25.192Z,60.40
2023-04-26T16:38:57.334Z,59.40
2023-04-26T16:41:26.588Z,59.60
2023-04-26T16:43:57.318Z,60.10
2023-04-26T16:46:25.242Z,58.50
2023-04-26T16:48:56.296Z,60.80
2023-04-26T16:51:24.560Z,59.20
2023-04-26T16:53:52.421Z,59.50
2023-04-26T16:56:21.655Z,61.90
2023-04-26T16:58:49.615Z,58.40
2023-04-26T17:01:23.334Z,56.50
2023-04-26T17:03:51.994Z,56.80
2023-04-26T17:06:22.803Z,58.60
2023-04-26T17:08:50.987Z,59.10
2023-04-26T17:11:19.093Z,56.50
2023-04-26T17:13:54.508Z,57.10
2023-04-26T17:16:22.518Z,61.10
2023-04-26T17:18:59.232Z,69.10
2023-04-26T17:21:27.132Z,72.60
2023-04-26T17:23:55.309Z,58.20
2023-04-26T17:26:23.244Z,58.10
2023-04-26T17:28:58.160Z,59.30
2023-04-26T17:31:26.140Z,63.50
2023-04-26T17:33:54.050Z,62.70
2023-04-26T17:36:22.064Z,60.40
2023-04-26T17:38:52.550Z,59.00
2023-04-26T17:41:29.688Z,60.10
2023-04-26T17:44:04.866Z,59.60
2023-04-26T17:46:35.778Z,63.00
2023-04-26T17:49:03.632Z,61.40
2023-04-26T17:51:31.554Z,62.90
2023-04-26T17:54:05.176Z,62.30
2023-04-26T17:56:33.092Z,62.50
2023-04-26T17:59:03.463Z,63.30
2023-04-26T18:01:33.009Z,67.60
2023-04-26T18:04:08.549Z,63.30
2023-04-26T18:06:45.279Z,63.40
2023-04-26T18:09:13.286Z,63.60
2023-04-26T18:11:47.656Z,62.20
2023-04-26T18:14:18.039Z,65.30
2023-04-26T18:16:49.868Z,64.80
2023-04-26T18:19:17.788Z,63.60
2023-04-26T18:21:45.732Z,62.30
2023-04-26T18:24:13.644Z,62.70
2023-04-26T18:26:44.330Z,63.00
2023-04-26T18:29:14.969Z,64.90
2023-04-26T18:31:47.310Z,65.80
2023-04-26T18:34:24.140Z,64.60
2023-04-26T18:36:52.076Z,65.60
2023-04-26T18:39:19.983Z,63.70
2023-04-26T18:41:48.206Z,64.30
2023-04-26T18:44:16.358Z,64.70
2023-04-26T18:46:48.535Z,65.50
2023-04-26T18:49:19.341Z,67.10
2023-04-26T18:51:49.511Z,66.50
2023-04-26T18:54:17.407Z,66.40
2023-04-26T18:56:45.476Z,66.70
2023-04-26T18:59:15.813Z,67.00
2023-04-26T19:01:49.107Z,67.20
2023-04-26T19:04:22.344Z,66.30
2023-04-26T19:07:03.773Z,65.90
2023-04-26T19:09:42.820Z,66.20
2023-04-26T19:12:18.694Z,65.80
2023-04-26T19:14:52.356Z,67.10
2023-04-26T19:17:21.924Z,67.40
2023-04-26T19:19:51.979Z,68.10
2023-04-26T19:22:28.783Z,68.80
2023-04-26T19:25:02.247Z,68.70
2023-04-26T19:27:33.159Z,72.40
2023-04-26T19:30:04.153Z,69.70
2023-04-26T19:32:33.464Z,68.40
2023-04-26T19:35:01.392Z,69.20
2023-04-26T19:37:34.460Z,69.40
2023-04-26T19:40:02.366Z,70.50
2023-04-26T19:42:30.906Z,70.40
2023-04-26T19:45:07.366Z,71.20
2023-04-26T19:47:43.379Z,71.10
2023-04-26T19:50:12.282Z,71.60
2023-04-26T19:52:40.559Z,72.00
2023-04-26T19:55:14.880Z,72.50
2023-04-26T19:57:45.754Z,76.00
2023-04-26T20:00:15.845Z,72.70
2023-04-26T20:02:47.523Z,70.70
2023-04-26T20:05:24.579Z,70.70
2023-04-26T20:07:52.524Z,70.60
2023-04-26T20:10:23.487Z,71.70
2023-04-26T20:12:54.090Z,71.50
2023-04-26T20:15:28.036Z,71.40
2023-04-26T20:17:59.127Z,72.00
2023-04-26T20:20:29.938Z,71.70
2023-04-26T20:22:57.789Z,71.80
2023-04-26T20:25:34.945Z,72.20
2023-04-26T20:28:06.406Z,72.50
2023-04-26T20:30:34.558Z,72.50
2023-04-26T20:33:03.914Z,71.90
2023-04-26T20:35:31.830Z,72.50
2023-04-26T20:38:06.361Z,72.10
2023-04-26T20:40:39.766Z,72.50
2023-04-26T20:43:09.833Z,71.50
2023-04-26T20:45:42.234Z,71.30
2023-04-26T20:48:14.086Z,69.40
2023-04-26T20:50:49.372Z,68.90
2023-04-26T20:53:22.655Z,69.30
2023-04-26T20:55:52.841Z,70.10
2023-04-26T20:58:26.822Z,69.30
2023-04-26T21:00:55.603Z,70.70
2023-04-26T21:03:25.198Z,70.70
2023-04-26T21:05:53.122Z,70.90
2023-04-26T21:08:24.032Z,70.70
2023-04-26T21:10:51.881Z,71.60
2023-04-26T21:13:23.636Z,72.30
2023-04-26T21:15:51.522Z,73.00
2023-04-26T21:18:32.092Z,74.40
2023-04-26T21:21:01.320Z,73.60
2023-04-26T21:23:33.133Z,72.70
2023-04-26T21:26:01.005Z,72.60
2023-04-26T21:28:34.651Z,73.30
2023-04-26T21:31:04.692Z,73.10
2023-04-26T21:33:40.749Z,73.50
2023-04-26T21:36:16.177Z,73.50
2023-04-26T21:38:46.828Z,74.50
2023-04-26T21:41:14.761Z,75.30
2023-04-26T21:43:42.654Z,75.20
2023-04-26T21:46:11.665Z,73.70
2023-04-26T21:48:42.624Z,73.60
2023-04-26T21:51:11.837Z,74.10
2023-04-26T21:53:42.850Z,75.30
2023-04-26T21:56:10.697Z,75.50
2023-04-26T21:58:41.796Z,75.30
2023-04-26T22:01:10.686Z,75.10
2023-04-26T22:03:38.933Z,78.60
2023-04-26T22:06:12.385Z,80.90
2023-04-26T22:08:52.225Z,77.00
2023-04-26T22:11:26.002Z,75.70
2023-04-26T22:14:03.110Z,74.40
2023-04-26T22:16:31.865Z,73.10
2023-04-26T22:19:02.884Z,73.20
2023-04-26T22:21:32.222Z,74.00
2023-04-26T22:24:01.073Z,74.10
2023-04-26T22:26:28.946Z,79.00
2023-04-26T22:29:03.945Z,77.50
2023-04-26T22:31:31.883Z,75.80
2023-04-26T22:33:59.759Z,74.10
2023-04-26T22:36:27.654Z,73.70
2023-04-26T22:38:59.987Z,74.00
2023-04-26T22:41:29.933Z,74.00
2023-04-26T22:44:00.950Z,74.90
2023-04-26T22:46:35.098Z,76.60
2023-04-26T22:49:03.012Z,74.20
2023-04-26T22:51:32.284Z,74.10
2023-04-26T22:54:01.698Z,75.60
2023-04-26T22:56:29.560Z,76.10
2023-04-26T22:58:59.334Z,75.40
2023-04-26T23:01:27.248Z,75.40
2023-04-26T23:03:55.177Z,73.80
2023-04-26T23:06:23.390Z,76.70
2023-04-26T23:08:53.428Z,80.70
2023-04-26T23:11:22.643Z,76.70
2023-04-26T23:13:54.679Z,73.80
2023-04-26T23:16:25.442Z,73.50
2023-04-26T23:18:53.314Z,72.70
2023-04-26T23:21:22.475Z,72.20
2023-04-26T23:23:56.337Z,71.70
2023-04-26T23:26:25.578Z,72.10
2023-04-26T23:29:02.568Z,77.00
2023-04-26T23:34:17.822Z,82.40
2023-04-26T23:36:54.265Z,82.30
2023-04-26T23:39:25.057Z,75.90
2023-04-26T23:41:54.282Z,72.80
2023-04-26T23:44:22.131Z,72.10
2023-04-26T23:46:51.985Z,71.70
2023-04-26T23:49:22.938Z,74.20
2023-04-26T23:51:53.836Z,77.80
2023-04-26T23:54:21.710Z,72.00
2023-04-26T23:56:54.141Z,71.30
2023-04-26T23:59:27.876Z,71.80
